createdAt,value
2022-08-09T00:01:52.566Z,2.80
2022-08-09T00:04:33.856Z,2.20
2022-08-09T00:07:07.715Z,2.40
2022-08-09T00:09:39.502Z,2.10
2022-08-09T00:12:08.309Z,1.90
2022-08-09T00:14:38.521Z,2.20
2022-08-09T00:17:07.617Z,2.30
2022-08-09T00:19:36.356Z,2.10
2022-08-09T00:22:04.656Z,2.40
2022-08-09T00:24:33.744Z,2.70
2022-08-09T00:27:02.171Z,2.70
2022-08-09T00:30:16.209Z,2.50
2022-08-09T00:32:25.664Z,2.60
2022-08-09T00:34:56.611Z,2.80
2022-08-09T00:37:27.343Z,3.20
2022-08-09T00:40:14.129Z,3.20
2022-08-09T00:44:16.493Z,3.80
2022-08-09T00:45:35.188Z,3.30
2022-08-09T00:48:04.748Z,3.50
2022-08-09T00:50:37.950Z,3.20
2022-08-09T00:53:10.318Z,3.40
2022-08-09T00:56:05.368Z,3.30
2022-08-09T00:58:30.559Z,3.50
2022-08-09T01:01:00.201Z,3.80
2022-08-09T01:03:49.246Z,4.30
2022-08-09T01:06:53.229Z,4.00
2022-08-09T01:09:38.364Z,3.50
2022-08-09T01:12:15.217Z,4.10
2022-08-09T01:15:17.555Z,3.80
2022-08-09T01:17:57.668Z,3.80
2022-08-09T01:20:25.964Z,3.70
2022-08-09T01:24:02.623Z,4.00
2022-08-09T01:26:22.316Z,4.20
2022-08-09T01:28:54.124Z,4.60
2022-08-09T01:32:43.778Z,4.40
2022-08-09T01:34:18.791Z,3.70
2022-08-09T01:36:49.677Z,4.10
2022-08-09T01:39:18.878Z,3.60
2022-08-09T01:41:59.763Z,3.40
2022-08-09T01:44:31.239Z,3.90
2022-08-09T01:47:01.849Z,3.50
2022-08-09T01:49:38.845Z,3.10
2022-08-09T01:52:11.922Z,3.60
2022-08-09T01:54:47.283Z,3.90
2022-08-09T01:57:20.650Z,4.10
2022-08-09T01:59:53.463Z,3.70
2022-08-09T02:02:32.532Z,3.60
2022-08-09T02:05:15.609Z,3.50
2022-08-09T02:08:35.571Z,3.60
2022-08-09T02:10:51.155Z,3.20
2022-08-09T02:13:26.315Z,3.20
2022-08-09T02:16:12.322Z,3.10
2022-08-09T02:18:42.919Z,3.30
2022-08-09T02:21:22.349Z,3.40
2022-08-09T02:23:54.923Z,3.90
2022-08-09T02:26:28.294Z,3.20
2022-08-09T02:29:19.036Z,3.40
2022-08-09T02:31:51.463Z,3.40
2022-08-09T02:34:40.214Z,3.50
2022-08-09T02:37:16.455Z,3.10
2022-08-09T02:39:55.015Z,3.20
2022-08-09T02:42:37.166Z,3.20
2022-08-09T02:45:09.649Z,3.50
2022-08-09T02:47:57.999Z,3.50
2022-08-09T02:50:35.211Z,3.60
2022-08-09T02:53:08.690Z,3.10
2022-08-09T02:55:46.372Z,3.30
2022-08-09T02:58:37.105Z,3.70
2022-08-09T03:01:08.085Z,3.30
2022-08-09T03:04:17.691Z,3.10
2022-08-09T03:06:30.404Z,3.20
2022-08-09T03:09:00.362Z,3.40
2022-08-09T03:12:04.000Z,3.20
2022-08-09T03:14:19.941Z,3.60
2022-08-09T03:16:55.732Z,3.30
2022-08-09T03:19:59.000Z,3.10
2022-08-09T03:22:25.109Z,3.60
2022-08-09T03:25:21.798Z,3.10
2022-08-09T03:27:45.893Z,3.20
2022-08-09T03:30:23.734Z,3.30
2022-08-09T03:33:17.413Z,4.40
2022-08-09T03:36:14.139Z,5.70
2022-08-09T03:38:41.820Z,4.10
2022-08-09T03:41:15.427Z,4.10
2022-08-09T03:44:03.169Z,3.90
2022-08-09T03:46:34.615Z,4.30
2022-08-09T03:49:08.495Z,4.40
2022-08-09T03:51:56.039Z,5.30
2022-08-09T03:54:31.827Z,4.10
2022-08-09T03:57:04.547Z,3.80
2022-08-09T03:59:54.771Z,3.50
2022-08-09T04:02:28.148Z,3.40
2022-08-09T04:05:06.239Z,3.90
2022-08-09T04:07:53.596Z,3.70
2022-08-09T04:10:29.079Z,4.10
2022-08-09T04:13:04.189Z,4.30
2022-08-09T04:15:52.424Z,4.40
2022-08-09T04:18:21.509Z,4.50
2022-08-09T04:20:51.679Z,4.10
2022-08-09T04:23:23.397Z,3.70
2022-08-09T04:25:54.857Z,3.90
2022-08-09T04:28:33.916Z,3.80
2022-08-09T04:31:08.990Z,3.80
2022-08-09T04:33:53.049Z,3.60
2022-08-09T04:36:27.716Z,3.80
2022-08-09T04:38:59.780Z,3.90
2022-08-09T04:41:32.847Z,4.30
2022-08-09T04:44:11.019Z,4.20
2022-08-09T04:46:59.543Z,4.10
2022-08-09T04:49:53.926Z,4.10
2022-08-09T04:52:32.303Z,3.30
2022-08-09T04:55:04.175Z,3.70
2022-08-09T04:57:59.044Z,3.50
2022-08-09T05:00:31.884Z,3.80
2022-08-09T05:03:30.274Z,4.40
2022-08-09T05:06:04.544Z,3.90
2022-08-09T05:08:35.802Z,4.30
2022-08-09T05:11:07.495Z,3.70
2022-08-09T05:13:38.785Z,3.90
2022-08-09T05:16:08.552Z,5.20
2022-08-09T05:18:57.306Z,4.20
2022-08-09T05:21:29.817Z,4.10
2022-08-09T05:24:01.457Z,3.90
2022-08-09T05:26:37.211Z,5.00
2022-08-09T05:29:21.771Z,5.10
2022-08-09T05:31:57.170Z,5.00
2022-08-09T05:34:32.577Z,4.50
2022-08-09T05:37:05.273Z,5.20
2022-08-09T05:39:43.927Z,5.60
2022-08-09T05:42:17.742Z,5.70
2022-08-09T05:44:52.350Z,5.60
2022-08-09T05:47:23.771Z,5.70
2022-08-09T05:50:24.442Z,5.00
2022-08-09T05:52:44.627Z,4.50
2022-08-09T05:55:23.977Z,3.80
2022-08-09T05:57:56.886Z,4.10
2022-08-09T06:00:28.999Z,4.50
2022-08-09T06:02:59.176Z,4.70
2022-08-09T06:05:54.512Z,4.50
2022-08-09T06:08:24.909Z,5.10
2022-08-09T06:10:55.501Z,5.90
2022-08-09T06:13:24.264Z,5.60
2022-08-09T06:15:53.059Z,5.80
2022-08-09T06:18:25.469Z,7.00
2022-08-09T06:20:57.919Z,6.10
2022-08-09T06:23:58.171Z,5.90
2022-08-09T06:26:22.406Z,5.80
2022-08-09T06:29:00.330Z,5.50
2022-08-09T06:31:39.877Z,6.30
2022-08-09T06:34:26.251Z,6.80
2022-08-09T06:36:59.812Z,8.90
2022-08-09T06:39:48.980Z,6.70
2022-08-09T06:42:24.833Z,7.20
2022-08-09T06:45:00.287Z,7.10
2022-08-09T06:47:39.907Z,7.80
2022-08-09T06:50:16.684Z,7.80
2022-08-09T06:52:49.050Z,7.00
2022-08-09T06:55:23.948Z,6.50
2022-08-09T07:00:56.191Z,7.00
2022-08-09T07:03:27.724Z,6.60
2022-08-09T07:06:04.042Z,6.80
2022-08-09T07:08:39.437Z,8.50
2022-08-09T07:11:12.546Z,7.50
2022-08-09T07:13:45.518Z,6.70
2022-08-09T07:16:42.706Z,8.70
2022-08-09T07:19:22.950Z,6.20
2022-08-09T07:21:55.948Z,6.30
2022-08-09T07:24:32.287Z,7.50
2022-08-09T07:27:33.839Z,6.90
2022-08-09T07:30:03.311Z,8.40
2022-08-09T07:32:34.243Z,6.40
2022-08-09T07:35:08.197Z,5.90
2022-08-09T07:37:43.470Z,6.00
2022-08-09T07:40:16.709Z,5.60
2022-08-09T07:42:56.375Z,5.10
2022-08-09T07:45:39.868Z,5.60
2022-08-09T07:48:25.321Z,6.30
2022-08-09T07:51:08.991Z,6.60
2022-08-09T07:56:44.826Z,5.30
2022-08-09T07:59:25.068Z,5.50
2022-08-09T08:02:02.190Z,5.00
2022-08-09T08:04:31.856Z,4.90
2022-08-09T08:07:15.551Z,4.90
2022-08-09T08:10:07.690Z,4.50
2022-08-09T08:12:44.111Z,4.20
2022-08-09T08:15:17.702Z,4.40
2022-08-09T08:17:53.032Z,9.50
2022-08-09T08:20:29.065Z,4.70
2022-08-09T08:23:03.622Z,10.40
2022-08-09T08:25:50.148Z,4.90
2022-08-09T08:28:25.606Z,4.70
2022-08-09T08:31:14.243Z,4.50
2022-08-09T08:33:52.482Z,4.30
2022-08-09T08:36:29.616Z,4.50
2022-08-09T08:39:00.192Z,4.30
2022-08-09T08:41:51.112Z,4.30
2022-08-09T08:44:23.246Z,4.10
2022-08-09T08:47:04.727Z,5.40
2022-08-09T08:49:48.161Z,5.90
2022-08-09T08:55:23.101Z,5.80
2022-08-09T08:57:57.586Z,4.70
2022-08-09T09:00:39.599Z,4.10
2022-08-09T09:03:23.094Z,4.10
2022-08-09T09:06:05.060Z,4.00
2022-08-09T09:08:42.487Z,4.50
2022-08-09T09:11:13.747Z,4.60
2022-08-09T09:13:58.497Z,5.00
2022-08-09T09:16:34.583Z,4.70
2022-08-09T09:22:26.797Z,4.50
2022-08-09T09:26:02.413Z,4.80
2022-08-09T09:28:05.331Z,5.60
2022-08-09T09:30:54.043Z,5.10
2022-08-09T09:33:44.715Z,5.20
2022-08-09T09:36:20.361Z,5.50
2022-08-09T09:38:58.081Z,4.80
2022-08-09T09:41:49.748Z,5.20
2022-08-09T09:44:31.461Z,4.60
2022-08-09T09:47:12.101Z,5.40
2022-08-09T09:50:14.145Z,5.60
2022-08-09T09:52:54.868Z,4.60
2022-08-09T09:55:32.321Z,4.70
2022-08-09T09:58:16.188Z,5.10
2022-08-09T10:01:00.704Z,5.60
2022-08-09T10:03:58.220Z,6.30
2022-08-09T10:06:42.776Z,4.90
2022-08-09T10:09:28.536Z,5.20
2022-08-09T10:12:32.406Z,5.10
2022-08-09T10:15:25.501Z,6.00
2022-08-09T10:18:13.409Z,5.70
2022-08-09T10:20:44.906Z,5.20
2022-08-09T10:23:21.902Z,4.90
2022-08-09T10:26:07.448Z,4.10
2022-08-09T10:28:41.396Z,4.90
2022-08-09T10:34:10.186Z,4.70
2022-08-09T10:36:58.102Z,3.90
2022-08-09T10:39:28.807Z,4.50
2022-08-09T10:41:58.137Z,4.50
2022-08-09T10:44:31.897Z,4.10
2022-08-09T10:48:12.475Z,4.40
2022-08-09T10:51:01.951Z,4.40
2022-08-09T10:54:06.266Z,4.60
2022-08-09T10:56:42.153Z,9.00
2022-08-09T10:59:31.025Z,4.70
2022-08-09T11:03:18.908Z,4.30
2022-08-09T11:05:24.980Z,5.60
2022-08-09T11:08:43.620Z,4.40
2022-08-09T11:11:59.613Z,5.20
2022-08-09T11:14:39.765Z,4.50
2022-08-09T11:17:19.243Z,5.30
2022-08-09T11:20:10.045Z,5.20
2022-08-09T11:22:40.292Z,6.50
2022-08-09T11:25:10.196Z,6.00
2022-08-09T11:28:05.538Z,7.00
2022-08-09T11:30:37.298Z,4.80
2022-08-09T11:33:19.948Z,5.30
2022-08-09T11:35:59.814Z,5.20
2022-08-09T11:38:34.932Z,5.40
2022-08-09T11:41:13.592Z,5.30
2022-08-09T11:43:52.821Z,5.50
2022-08-09T11:46:33.307Z,5.50
2022-08-09T11:49:05.206Z,5.00
2022-08-09T11:53:03.665Z,5.50
2022-08-09T11:55:51.629Z,5.30
2022-08-09T12:00:56.517Z,4.70
2022-08-09T12:03:50.499Z,4.70
2022-08-09T12:06:26.519Z,5.70
2022-08-09T12:08:57.106Z,5.50
2022-08-09T12:11:27.988Z,5.60
2022-08-09T12:14:09.658Z,5.40
2022-08-09T12:16:42.864Z,5.40
2022-08-09T12:19:13.226Z,4.90
2022-08-09T12:21:50.463Z,4.80
2022-08-09T12:24:25.105Z,5.10
2022-08-09T12:29:10.989Z,6.70
2022-08-09T12:32:44.899Z,6.10
2022-08-09T12:35:17.056Z,6.20
2022-08-09T12:37:51.685Z,6.00
2022-08-09T12:40:23.207Z,6.40
2022-08-09T12:42:56.158Z,5.40
2022-08-09T12:45:34.758Z,4.90
2022-08-09T12:48:27.943Z,5.50
2022-08-09T12:51:03.897Z,4.60
2022-08-09T12:53:40.891Z,5.40
2022-08-09T12:56:39.451Z,5.60
2022-08-09T12:59:14.323Z,4.50
2022-08-09T13:02:05.160Z,4.40
2022-08-09T13:04:38.916Z,4.30
2022-08-09T13:07:13.854Z,4.40
2022-08-09T13:09:43.276Z,4.40
2022-08-09T13:12:12.025Z,3.90
2022-08-09T13:14:48.862Z,4.10
2022-08-09T13:17:44.274Z,3.70
2022-08-09T13:20:18.793Z,4.40
2022-08-09T13:23:06.139Z,3.30
2022-08-09T13:25:53.367Z,4.00
2022-08-09T13:28:34.683Z,4.10
2022-08-09T13:32:12.502Z,4.00
2022-08-09T13:34:00.301Z,3.80
2022-08-09T13:36:41.051Z,4.00
2022-08-09T13:41:51.302Z,3.60
2022-08-09T13:42:12.043Z,3.70
2022-08-09T13:44:48.719Z,3.90
2022-08-09T13:47:33.879Z,3.70
2022-08-09T13:50:18.028Z,3.90
2022-08-09T13:52:58.922Z,4.20
2022-08-09T13:55:30.412Z,3.90
2022-08-09T13:57:59.307Z,4.20
2022-08-09T14:00:30.747Z,5.20
2022-08-09T14:03:03.155Z,3.80
2022-08-09T14:05:56.667Z,3.70
2022-08-09T14:08:29.813Z,3.90
2022-08-09T14:10:59.553Z,3.90
2022-08-09T14:14:16.511Z,3.80
2022-08-09T14:16:28.284Z,3.50
2022-08-09T14:18:59.568Z,3.60
2022-08-09T14:21:31.960Z,5.80
2022-08-09T14:24:10.209Z,3.00
2022-08-09T14:26:51.141Z,3.60
2022-08-09T14:30:18.541Z,2.90
2022-08-09T14:32:12.973Z,2.70
2022-08-09T14:34:47.533Z,2.70
2022-08-09T14:37:28.568Z,2.60
2022-08-09T14:40:13.235Z,2.60
2022-08-09T14:42:42.036Z,2.40
2022-08-09T14:46:40.083Z,2.40
2022-08-09T14:48:02.298Z,2.20
2022-08-09T14:50:35.204Z,2.30
2022-08-09T14:53:12.209Z,2.20
2022-08-09T14:55:49.963Z,2.40
2022-08-09T14:58:19.230Z,2.60
2022-08-09T15:00:52.021Z,2.30
2022-08-09T15:03:23.690Z,2.50
2022-08-09T15:05:59.718Z,2.10
2022-08-09T15:08:30.703Z,2.40
2022-08-09T15:11:00.407Z,2.60
2022-08-09T15:13:48.064Z,2.70
2022-08-09T15:16:20.418Z,2.70
2022-08-09T15:18:49.270Z,2.80
2022-08-09T15:21:56.829Z,3.10
2022-08-09T15:24:11.480Z,3.10
2022-08-09T15:26:45.320Z,3.00
2022-08-09T15:30:56.021Z,3.20
2022-08-09T15:32:05.951Z,3.00
2022-08-09T15:34:55.503Z,2.90
2022-08-09T15:37:57.169Z,3.00
2022-08-09T15:40:31.777Z,3.50
2022-08-09T15:43:02.609Z,2.90
2022-08-09T15:46:07.463Z,3.00
2022-08-09T15:48:29.062Z,6.60
2022-08-09T15:51:30.149Z,3.20
2022-08-09T15:54:07.082Z,3.00
2022-08-09T15:56:48.027Z,3.80
2022-08-09T15:59:18.053Z,3.20
2022-08-09T16:01:46.497Z,3.90
2022-08-09T16:04:17.005Z,3.30
2022-08-09T16:06:52.767Z,3.30
2022-08-09T16:09:32.397Z,3.20
2022-08-09T16:12:13.665Z,3.70
2022-08-09T16:14:43.946Z,3.10
2022-08-09T16:17:17.172Z,3.00
2022-08-09T16:19:49.643Z,5.50
2022-08-09T16:22:34.203Z,11.20
2022-08-09T16:25:08.296Z,7.90
2022-08-09T16:27:37.314Z,5.00
2022-08-09T16:30:08.758Z,3.80
2022-08-09T16:33:03.964Z,3.50
2022-08-09T16:35:57.606Z,3.20
2022-08-09T16:38:22.611Z,3.30
2022-08-09T16:40:50.806Z,2.60
2022-08-09T16:43:20.813Z,2.80
2022-08-09T16:45:53.622Z,2.30
2022-08-09T16:48:50.241Z,2.80
2022-08-09T16:51:13.867Z,3.10
2022-08-09T16:54:08.946Z,2.50
2022-08-09T16:56:33.920Z,3.20
2022-08-09T16:59:06.787Z,3.00
2022-08-09T17:01:39.419Z,3.80
2022-08-09T17:04:26.114Z,2.60
2022-08-09T17:08:43.817Z,2.90
2022-08-09T17:09:47.754Z,4.10
2022-08-09T17:12:17.046Z,4.30
2022-08-09T17:14:49.108Z,3.40
2022-08-09T17:17:27.181Z,3.80
2022-08-09T17:20:28.645Z,4.50
2022-08-09T17:22:50.198Z,3.90
2022-08-09T17:25:22.034Z,3.90
2022-08-09T17:27:54.511Z,6.90
2022-08-09T17:30:28.928Z,4.70
2022-08-09T17:33:05.515Z,4.60
2022-08-09T17:35:50.614Z,4.60
2022-08-09T17:38:32.522Z,5.70
2022-08-09T17:41:05.292Z,6.10
2022-08-09T17:43:35.987Z,4.50
2022-08-09T17:46:09.481Z,4.40
2022-08-09T17:48:51.984Z,4.10
2022-08-09T17:51:22.449Z,4.00
2022-08-09T17:53:55.268Z,5.10
2022-08-09T17:56:28.874Z,4.80
2022-08-09T17:59:03.353Z,4.20
2022-08-09T18:02:03.282Z,4.40
2022-08-09T18:04:27.923Z,4.00
2022-08-09T18:06:56.563Z,4.70
2022-08-09T18:09:40.078Z,5.50
2022-08-09T18:12:19.727Z,4.20
